Time;durP1;ratioP1;P1;durP2;ratioP2;P2;SDS_P1;SDS_P2;PMS_P1;PMS_P2;Temp;Humidity;BMP_temperature;BMP_pressure;BME280_temperature;BME280_humidity;BME280_pressure;Samples;Min_cycle;Max_cycle;Signal;HPM_P1;HPM_P2
2023/01/19 00:01:40;;;;;;;25.23;19.70;;;;;;;1.01;100.00;160835.22;5069995;28;20048;-65
2023/01/19 00:04:06;;;;;;;27.55;20.33;;;;;;;0.91;100.00;160811.13;5072843;28;20043;-65
2023/01/19 00:06:31;;;;;;;33.22;22.60;;;;;;;0.98;100.00;160827.22;5070740;28;20135;-65
2023/01/19 00:08:57;;;;;;;27.30;20.83;;;;;;;0.98;100.00;160827.22;5073262;28;20099;-63
2023/01/19 00:11:22;;;;;;;28.08;22.88;;;;;;;0.97;100.00;160824.53;5071291;28;20055;-62
2023/01/19 00:13:50;;;;;;;27.60;22.20;;;;;;;0.99;100.00;160829.91;5072969;28;20016;-62
2023/01/19 00:16:17;;;;;;;33.83;25.23;;;;;;;0.95;100.00;160821.84;5070715;28;20074;-62
2023/01/19 00:18:46;;;;;;;27.85;22.95;;;;;;;1.05;100.00;160847.31;5072829;28;20077;-62
2023/01/19 00:21:13;;;;;;;;;;;;;;;1.05;100.00;160847.31;5071468;28;20037;-63
2023/01/19 00:23:39;;;;;;;26.80;22.33;;;;;;;1.01;100.00;160835.22;5072866;28;19920;-63
2023/01/19 00:26:04;;;;;;;38.65;24.73;;;;;;;1.01;100.00;160835.22;5071188;28;20063;-63
2023/01/19 00:28:30;;;;;;;33.40;26.08;;;;;;;1.04;100.00;160844.63;5072360;28;20032;-63
2023/01/19 00:30:55;;;;;;;34.72;23.48;;;;;;;1.02;100.00;160837.91;5057509;28;20080;-62
2023/01/19 00:33:21;;;;;;;27.23;22.40;;;;;;;1.02;100.00;160837.91;5052526;28;20096;-63
2023/01/19 00:35:51;;;;;;;28.95;25.80;;;;;;;1.02;100.00;160839.28;5050592;28;20049;-62
2023/01/19 00:38:16;;;;;;;27.77;24.48;;;;;;;1.01;100.00;160836.59;5052269;28;20027;-62
2023/01/19 00:40:42;;;;;;;30.95;23.40;;;;;;;1.01;100.00;160835.22;5051032;28;20032;-62
2023/01/19 00:43:07;;;;;;;32.22;25.00;;;;;;;1.02;100.00;160837.91;5052445;28;20055;-62
2023/01/19 00:45:32;;;;;;;43.95;25.80;;;;;;;1.04;100.00;160843.28;5050512;28;20416;-62
2023/01/19 00:47:58;;;;;;;33.30;25.50;;;;;;;1.04;100.00;160844.63;5052264;28;20020;-62
2023/01/19 00:50:26;;;;;;;36.63;24.75;;;;;;;1.05;100.00;160845.97;5050660;28;20070;-62
2023/01/19 00:52:53;;;;;;;27.55;22.50;;;;;;;1.03;100.00;160840.59;5052082;28;20052;-62
2023/01/19 00:55:19;;;;;;;34.10;25.25;;;;;;;1.06;100.00;160848.69;5049966;28;20025;-62
2023/01/19 00:57:44;;;;;;;39.75;28.02;;;;;;;1.02;100.00;160837.91;5051484;28;20511;-63
2023/01/19 01:00:16;;;;;;;34.25;25.02;;;;;;;0.98;100.00;160827.22;5050173;28;20028;-62
2023/01/19 01:02:43;;;;;;;35.38;24.70;;;;;;;0.94;100.00;160819.16;5032002;28;20071;-62
2023/01/19 01:05:09;;;;;;;36.38;25.83;;;;;;;0.91;100.00;160811.13;5041765;28;20376;-62
2023/01/19 01:07:40;;;;;;;31.63;24.83;;;;;;;0.87;100.00;160800.38;5051580;28;20174;-62
2023/01/19 01:10:10;;;;;;;32.63;26.67;;;;;;;0.89;100.00;160804.44;5052095;28;20017;-62
2023/01/19 01:12:36;;;;;;;33.20;26.05;;;;;;;0.88;100.00;160803.06;5030604;28;20563;-62
2023/01/19 01:15:03;;;;;;;31.35;23.08;;;;;;;0.78;100.00;160776.28;5031882;28;20057;-62
2023/01/19 01:17:28;;;;;;;29.23;23.88;;;;;;;0.75;100.00;160769.53;5049595;28;20120;-62
2023/01/19 01:19:53;;;;;;;30.63;26.20;;;;;;;0.73;100.00;160762.84;5051930;28;20016;-63
2023/01/19 01:22:19;;;;;;;33.95;24.45;;;;;;;0.69;100.00;160753.44;5051386;28;20036;-63
2023/01/19 01:24:44;;;;;;;38.85;27.70;;;;;;;0.66;100.00;160744.06;5071345;28;20032;-63
2023/01/19 01:27:10;;;;;;;30.67;25.05;;;;;;;0.54;100.00;160713.22;5069825;28;20040;-62
2023/01/19 01:29:36;;;;;;;37.00;27.67;;;;;;;0.68;100.00;160749.44;5071114;28;20632;-62
2023/01/19 01:32:01;;;;;;;46.85;28.35;;;;;;;0.66;100.00;160744.06;5066064;28;20102;-62
2023/01/19 01:34:27;;;;;;;35.25;25.58;;;;;;;0.62;100.00;160736.06;5050713;28;20392;-62
2023/01/19 01:36:53;;;;;;;38.55;28.33;;;;;;;0.64;100.00;160740.06;5035112;28;20041;-62
2023/01/19 01:39:19;;;;;;;36.92;27.52;;;;;;;0.65;100.00;160741.38;5031486;28;20052;-62
2023/01/19 01:41:44;;;;;;;41.55;29.58;;;;;;;0.61;100.00;160733.34;5043472;28;20091;-62
2023/01/19 01:44:48;;;;;;;37.85;30.35;;;;;;;0.59;100.00;160727.97;5050443;28;20048;-62
2023/01/19 01:47:17;;;;;;;39.35;31.20;;;;;;;0.58;100.00;160723.97;5048070;28;20516;-63
2023/01/19 01:49:43;;;;;;;37.88;27.60;;;;;;;0.57;100.00;160722.59;5051054;28;20499;-62
2023/01/19 01:52:10;;;;;;;47.00;31.23;;;;;;;0.56;100.00;160719.91;5049129;28;20439;-63
2023/01/19 01:54:35;;;;;;;43.55;28.33;;;;;;;0.57;100.00;160722.59;5050774;28;20033;-63
2023/01/19 01:57:05;;;;;;;37.25;28.70;;;;;;;0.60;100.00;160729.31;5049745;28;20044;-63
2023/01/19 01:59:37;;;;;;;40.42;30.73;;;;;;;0.59;100.00;160727.97;5050683;28;20049;-63
2023/01/19 02:05:09;;;;;;;43.35;31.75;;;;;;;0.58;100.00;160725.28;5051031;28;20048;-63
2023/01/19 02:13:38;;;;;;;43.08;31.05;;;;;;;0.56;100.00;160719.91;5050344;28;20032;-63
2023/01/19 02:16:08;;;;;;;46.33;32.75;;;;;;;0.58;100.00;160725.28;5049375;28;20051;-63
2023/01/19 02:18:33;;;;;;;50.05;32.95;;;;;;;0.59;100.00;160727.97;5065391;28;20028;-64
2023/01/19 02:21:13;;;;;;;46.45;33.33;;;;;;;0.61;100.00;160733.34;5068958;28;20063;-63
2023/01/19 02:23:48;;;;;;;47.38;31.95;;;;;;;0.64;100.00;160740.06;5070875;28;20043;-63
2023/01/19 02:26:35;;;;;;;46.05;33.35;;;;;;;0.69;100.00;160752.13;5068916;28;20044;-62
2023/01/19 02:29:10;;;;;;;41.45;31.58;;;;;;;0.69;100.00;160753.44;5070432;28;20046;-63
2023/01/19 02:31:37;;;;;;;49.38;36.10;;;;;;;0.71;100.00;160757.50;5068777;28;20465;-62
2023/01/19 02:34:05;;;;;;;42.95;32.25;;;;;;;0.76;100.00;160770.91;5070809;28;20032;-63
2023/01/19 02:36:35;;;;;;;44.72;32.75;;;;;;;0.76;100.00;160772.22;5068498;28;20040;-62
2023/01/19 02:39:03;;;;;;;51.05;35.28;;;;;;;0.80;100.00;160781.59;5070457;28;20033;-62
2023/01/19 02:41:34;;;;;;;45.10;32.88;;;;;;;0.81;100.00;160784.28;5068436;28;20149;-62
2023/01/19 02:44:00;;;;;;;46.88;34.13;;;;;;;0.84;100.00;160792.34;5069705;28;20111;-62
2023/01/19 02:46:25;;;;;;;41.63;31.02;;;;;;;0.81;100.00;160782.97;5068961;28;20135;-62
2023/01/19 02:48:50;;;;;;;41.60;32.55;;;;;;;0.87;100.00;160800.38;5070420;28;20475;-62
2023/01/19 02:51:23;;;;;;;40.63;33.30;;;;;;;0.87;100.00;160800.38;5068328;28;20515;-62
2023/01/19 02:54:12;;;;;;;42.40;31.00;;;;;;;0.92;100.00;160813.81;5070807;28;20024;-62
2023/01/19 02:57:16;;;;;;;43.33;31.33;;;;;;;0.95;100.00;160821.84;5068503;28;20060;-62
2023/01/19 02:59:51;;;;;;;46.45;31.92;;;;;;;0.98;100.00;160827.22;5072877;28;20059;-62
2023/01/19 03:02:46;;;;;;;37.17;31.05;;;;;;;0.99;100.00;160829.91;5071096;28;20533;-62
2023/01/19 03:05:23;;;;;;;43.03;33.50;;;;;;;1.03;100.00;160841.97;5072343;28;20032;-62
2023/01/19 03:07:58;;;;;;;43.08;33.90;;;;;;;1.04;100.00;160843.28;5074207;28;20072;-63
2023/01/19 03:10:47;;;;;;;43.67;29.50;;;;;;;1.01;100.00;160835.22;5072545;28;20041;-63
2023/01/19 03:13:30;;;;;;;42.80;28.08;;;;;;;1.01;100.00;160835.22;5073560;28;20081;-63
2023/01/19 03:16:15;;;;;;;53.38;32.58;;;;;;;1.01;100.00;160835.22;5072446;28;20068;-62
2023/01/19 03:18:44;;;;;;;36.08;29.63;;;;;;;0.97;100.00;160824.53;5074086;28;20024;-63
2023/01/19 03:21:12;;;;;;;36.88;28.45;;;;;;;0.99;100.00;160831.22;5072008;28;20124;-63
2023/01/19 03:23:40;;;;;;;29.00;24.58;;;;;;;0.98;100.00;160827.22;5073938;28;20560;-63
2023/01/19 03:26:10;;;;;;;36.92;32.08;;;;;;;0.95;100.00;160821.84;5072229;28;20046;-62
2023/01/19 03:28:39;;;;;;;40.47;28.33;;;;;;;0.92;100.00;160812.44;5074139;28;20040;-62
2023/01/19 03:31:12;;;;;;;38.80;30.35;;;;;;;0.87;100.00;160800.38;5071910;28;20055;-62
2023/01/19 03:33:42;;;;;;;34.40;27.65;;;;;;;0.85;100.00;160795.03;5073610;28;20494;-62
2023/01/19 03:36:18;;;;;;;35.17;29.52;;;;;;;0.80;100.00;160781.59;5072278;28;20040;-62
2023/01/19 03:38:46;;;;;;;35.17;28.50;;;;;;;0.67;100.00;160748.06;5073605;28;20476;-62
2023/01/19 03:41:16;;;;;;;33.85;28.02;;;;;;;0.52;100.00;160709.22;5071762;28;20152;-62
2023/01/19 03:43:43;;;;;;;26.95;22.23;;;;;;;0.43;100.00;160686.44;5073687;28;20020;-62
2023/01/19 03:46:10;;;;;;;32.97;24.77;;;;;;;0.31;100.00;160654.25;5071623;28;20098;-62
2023/01/19 03:48:36;;;;;;;28.52;25.27;;;;;;;0.18;100.00;160620.78;5073253;28;20026;-62
2023/01/19 03:51:07;;;;;;;32.00;25.63;;;;;;;0.11;100.00;160602.00;5071705;28;20048;-62
2023/01/19 03:53:33;;;;;;;30.15;25.25;;;;;;;0.10;100.00;160599.31;5073043;28;20025;-62
2023/01/19 03:55:58;;;;;;;32.10;24.65;;;;;;;0.06;100.00;160588.56;5071584;28;20043;-62
2023/01/19 03:58:24;;;;;;;31.77;24.70;;;;;;;0.05;100.00;160585.88;5073112;28;20024;-62
2023/01/19 04:00:49;;;;;;;30.75;25.63;;;;;;;0.01;100.00;160575.19;5072037;28;20048;-61
2023/01/19 04:03:16;;;;;;;28.58;23.63;;;;;;;-0.01;100.00;160572.50;5072551;28;20032;-62
2023/01/19 04:05:42;;;;;;;28.17;23.90;;;;;;;-0.04;100.00;160563.13;5071673;28;20044;-61
2023/01/19 04:08:07;;;;;;;27.00;23.95;;;;;;;-0.07;100.00;160556.44;5072857;28;20044;-62
2023/01/19 04:10:33;;;;;;;29.05;24.13;;;;;;;-0.05;100.00;160560.44;5069788;28;20055;-62
2023/01/19 04:12:59;;;;;;;29.73;24.85;;;;;;;-0.01;100.00;160571.19;5072981;28;20024;-62
2023/01/19 04:15:25;;;;;;;24.95;22.25;;;;;;;-0.06;100.00;160557.75;5070932;28;20040;-62
2023/01/19 04:17:51;;;;;;;29.38;24.98;;;;;;;-0.06;100.00;160557.75;5072991;28;20111;-63
2023/01/19 04:20:16;;;;;;;29.13;25.85;;;;;;;-0.07;100.00;160556.44;5070958;28;20100;-63
2023/01/19 04:22:42;;;;;;;35.83;26.17;;;;;;;-0.04;100.00;160564.44;5072672;28;20023;-64
2023/01/19 04:25:08;;;;;;;31.92;27.88;;;;;;;0.00;100.00;160573.88;5071507;28;20392;-63
2023/01/19 04:27:34;;;;;;;33.72;27.17;;;;;;;0.06;100.00;160588.56;5071893;28;20032;-62
2023/01/19 04:30:00;;;;;;;33.75;28.15;;;;;;;-0.01;100.00;160572.50;5072781;28;20024;-62
2023/01/19 04:32:25;;;;;;;30.05;24.98;;;;;;;0.04;100.00;160583.25;5071068;28;20551;-62
2023/01/19 04:34:50;;;;;;;32.10;26.70;;;;;;;0.12;100.00;160604.66;5071939;28;20548;-62
2023/01/19 04:37:16;;;;;;;28.13;24.60;;;;;;;0.15;100.00;160612.72;5070904;28;20056;-62
2023/01/19 04:39:42;;;;;;;28.70;25.10;;;;;;;0.17;100.00;160616.72;5072592;28;20091;-62
2023/01/19 04:42:07;;;;;;;27.08;24.13;;;;;;;0.17;100.00;160616.72;5070686;28;20518;-62
2023/01/19 04:44:32;;;;;;;27.63;24.17;;;;;;;0.15;100.00;160614.03;5072188;28;20020;-62
2023/01/19 04:46:58;;;;;;;30.92;24.27;;;;;;;0.22;100.00;160631.47;5070957;28;20045;-62
2023/01/19 04:49:23;;;;;;;26.27;22.92;;;;;;;0.28;100.00;160646.22;5072013;28;20095;-62
2023/01/19 04:51:52;;;;;;;24.05;21.65;;;;;;;0.28;100.00;160647.53;5070868;28;20119;-62
2023/01/19 04:54:17;;;;;;;24.50;21.77;;;;;;;0.19;100.00;160623.41;5071883;28;20029;-62
2023/01/19 04:56:43;;;;;;;25.30;20.40;;;;;;;0.20;100.00;160624.78;5070370;28;20377;-62
2023/01/19 04:59:08;;;;;;;21.95;19.65;;;;;;;0.20;100.00;160624.78;5072276;28;20024;-62
2023/01/19 05:01:34;;;;;;;22.50;17.55;;;;;;;0.14;100.00;160610.00;5070123;28;20036;-62
2023/01/19 05:04:00;;;;;;;18.63;16.30;;;;;;;0.17;100.00;160618.09;5071628;28;20028;-62
2023/01/19 05:06:26;;;;;;;19.55;17.63;;;;;;;0.19;100.00;160622.09;5064041;28;20059;-62
2023/01/19 05:08:51;;;;;;;22.00;18.15;;;;;;;0.25;100.00;160639.53;5052112;28;20021;-62
2023/01/19 05:11:17;;;;;;;17.60;15.65;;;;;;;0.20;100.00;160624.78;5049605;28;20107;-63
2023/01/19 05:13:42;;;;;;;19.70;17.75;;;;;;;0.20;100.00;160626.09;5066233;28;20029;-62
2023/01/19 05:16:07;;;;;;;16.83;15.15;;;;;;;0.18;100.00;160620.78;5061338;28;20086;-61
2023/01/19 05:18:35;;;;;;;19.23;14.95;;;;;;;0.27;100.00;160644.84;5065694;28;20096;-62
2023/01/19 05:21:02;;;;;;;16.80;15.10;;;;;;;0.26;100.00;160642.16;5060500;28;20041;-61
2023/01/19 05:23:29;;;;;;;17.42;15.73;;;;;;;0.27;100.00;160644.84;5051392;28;20064;-60
2023/01/19 05:25:55;;;;;;;16.33;14.73;;;;;;;0.33;100.00;160658.28;5049338;28;20060;-60
2023/01/19 05:28:21;;;;;;;16.95;15.25;;;;;;;0.35;100.00;160663.63;5051852;28;20382;-59
2023/01/19 05:30:48;;;;;;;16.65;14.27;;;;;;;0.34;100.00;160662.31;5053515;28;20055;-59
2023/01/19 05:33:13;;;;;;;16.58;14.88;;;;;;;0.37;100.00;160669.00;5066646;28;20104;-59
2023/01/19 05:35:39;;;;;;;16.40;14.73;;;;;;;0.38;100.00;160673.00;5052218;28;20055;-58
2023/01/19 05:38:04;;;;;;;19.17;16.05;;;;;;;0.42;100.00;160682.38;5051365;28;20028;-59
2023/01/19 05:40:29;;;;;;;17.40;15.60;;;;;;;0.42;100.00;160682.38;5049480;28;20056;-59
2023/01/19 05:42:59;;;;;;;16.50;14.73;;;;;;;0.41;100.00;160679.75;5051380;28;20213;-59
2023/01/19 05:45:25;;;;;;;22.08;14.30;;;;;;;0.37;100.00;160670.38;5049831;28;20046;-59
2023/01/19 05:47:50;;;;;;;16.77;13.43;;;;;;;0.29;100.00;160648.91;5050847;28;20017;-59
2023/01/19 05:50:15;;;;;;;14.95;11.98;;;;;;;0.33;100.00;160658.28;5049319;28;20032;-59
2023/01/19 05:52:41;;;;;;;14.48;12.13;;;;;;;0.30;100.00;160652.91;5051270;28;20037;-60
2023/01/19 05:55:06;;;;;;;16.88;10.10;;;;;;;0.31;100.00;160655.59;5050955;28;20043;-59
2023/01/19 05:57:32;;;;;;;11.15;9.90;;;;;;;0.37;100.00;160670.38;5049286;28;20047;-59
2023/01/19 05:59:57;;;;;;;14.23;9.95;;;;;;;0.35;100.00;160663.63;5051489;28;20597;-59
2023/01/19 06:02:27;;;;;;;13.38;9.80;;;;;;;0.39;100.00;160674.38;5048850;28;20033;-59
2023/01/19 06:04:53;;;;;;;13.38;10.07;;;;;;;0.40;100.00;160677.06;5050977;28;20082;-59
2023/01/19 06:07:18;;;;;;;9.38;7.95;;;;;;;0.40;100.00;160678.38;5049159;28;20527;-59
2023/01/19 06:09:43;;;;;;;9.63;8.13;;;;;;;0.46;100.00;160693.13;5050705;28;20036;-59
2023/01/19 06:12:08;;;;;;;9.13;8.18;;;;;;;0.46;100.00;160693.13;5049258;28;20037;-59
2023/01/19 06:14:35;;;;;;;8.10;7.40;;;;;;;0.47;100.00;160695.81;5050580;28;20025;-59
2023/01/19 06:17:01;;;;;;;9.13;7.25;;;;;;;0.53;100.00;160710.53;5048702;28;20040;-59
2023/01/19 06:19:26;;;;;;;10.95;6.55;;;;;;;0.50;100.00;160702.53;5050580;28;20349;-59
2023/01/19 06:21:51;;;;;;;13.32;7.32;;;;;;;0.47;100.00;160695.81;5049395;28;20147;-58
2023/01/19 06:24:18;;;;;;;12.30;6.75;;;;;;;0.52;100.00;160709.22;5050337;28;20103;-59
2023/01/19 06:26:43;;;;;;;13.40;7.63;;;;;;;0.50;100.00;160703.84;5049332;28;20048;-58
2023/01/19 06:29:10;;;;;;;10.68;7.40;;;;;;;0.55;100.00;160717.28;5050657;28;20036;-59
2023/01/19 06:31:36;;;;;;;11.50;6.13;;;;;;;0.45;100.00;160690.44;5048865;28;20132;-59
2023/01/19 06:34:02;;;;;;;12.43;7.82;;;;;;;0.60;100.00;160729.31;5054218;28;20098;-59
2023/01/19 06:36:28;;;;;;;17.00;7.88;;;;;;;0.60;100.00;160730.66;5054477;28;20064;-60
2023/01/19 06:38:53;;;;;;;11.65;7.18;;;;;;;0.62;100.00;160734.69;5056618;28;20094;-59
2023/01/19 06:41:18;;;;;;;10.68;6.55;;;;;;;0.66;100.00;160744.06;5055408;28;20044;-59
2023/01/19 06:43:44;;;;;;;31.30;9.60;;;;;;;0.65;100.00;160741.38;5057253;28;20029;-59
2023/01/19 06:46:09;;;;;;;16.92;7.95;;;;;;;0.65;100.00;160741.38;5055353;28;20098;-59
2023/01/19 06:48:34;;;;;;;17.73;10.38;;;;;;;0.60;100.00;160730.66;5054839;28;20075;-59
2023/01/19 06:51:00;;;;;;;11.85;8.43;;;;;;;0.63;100.00;160738.69;5047542;28;20045;-59
2023/01/19 06:53:26;;;;;;;11.30;8.07;;;;;;;0.67;100.00;160746.75;5036560;28;20017;-59
2023/01/19 06:55:52;;;;;;;17.25;9.07;;;;;;;0.67;100.00;160746.75;5042743;28;20045;-59
2023/01/19 06:58:17;;;;;;;14.20;8.07;;;;;;;0.66;100.00;160744.06;5056735;28;20033;-59
2023/01/19 07:00:42;;;;;;;15.13;10.30;;;;;;;0.75;100.00;160768.22;5055436;28;20037;-61
2023/01/19 07:03:08;;;;;;;12.35;8.93;;;;;;;0.73;100.00;160762.84;5056388;28;20029;-59
2023/01/19 07:05:35;;;;;;;18.42;11.90;;;;;;;0.76;100.00;160772.22;5055287;28;20049;-59
2023/01/19 07:08:00;;;;;;;21.98;9.80;;;;;;;0.80;100.00;160781.59;5056927;28;20040;-60
2023/01/19 07:10:25;;;;;;;13.48;8.63;;;;;;;0.84;100.00;160792.34;5054916;28;20106;-59
2023/01/19 07:12:51;;;;;;;15.70;9.70;;;;;;;0.88;100.00;160803.06;5056971;28;20472;-59
2023/01/19 07:15:18;;;;;;;13.65;10.32;;;;;;;0.87;100.00;160800.38;5055191;28;20029;-59
2023/01/19 07:17:44;;;;;;;19.80;10.13;;;;;;;0.90;100.00;160807.06;5056613;28;20024;-59
2023/01/19 07:20:13;;;;;;;15.77;10.60;;;;;;;0.82;100.00;160786.97;5055286;28;20096;-59
2023/01/19 07:22:45;;;;;;;19.00;11.52;;;;;;;0.85;100.00;160795.03;5056944;28;20361;-59
2023/01/19 07:25:10;;;;;;;26.73;12.05;;;;;;;0.87;100.00;160800.38;5054868;28;20598;-59
2023/01/19 07:27:36;;;;;;;16.42;10.45;;;;;;;0.82;100.00;160786.97;5056907;28;20033;-60
2023/01/19 07:30:01;;;;;;;17.95;9.68;;;;;;;0.83;100.00;160789.66;5056971;28;20032;-59
2023/01/19 07:32:27;;;;;;;17.52;10.30;;;;;;;0.85;100.00;160795.03;5054642;28;20519;-59
2023/01/19 07:34:53;;;;;;;14.85;9.77;;;;;;;0.85;100.00;160795.03;5056698;28;20025;-59
2023/01/19 07:37:18;;;;;;;19.48;9.55;;;;;;;0.88;100.00;160803.06;5054973;28;20036;-59
2023/01/19 07:39:43;;;;;;;13.23;9.63;;;;;;;0.92;100.00;160812.44;5055485;28;20032;-59
2023/01/19 07:42:09;;;;;;;37.25;10.52;;;;;;;0.95;100.00;160821.84;5053507;28;20671;-59
2023/01/19 07:44:34;;;;;;;15.32;8.13;;;;;;;1.03;100.00;160840.59;5054541;28;20414;-60
2023/01/19 07:46:59;;;;;;;24.77;8.10;;;;;;;1.12;100.00;160864.75;5051401;28;20048;-60
2023/01/19 07:49:25;;;;;;;27.40;8.32;;;;;;;1.17;100.00;160878.16;5053504;28;20075;-60
2023/01/19 07:51:50;;;;;;;22.13;9.27;;;;;;;1.21;100.00;160888.91;5050544;28;20041;-60
2023/01/19 07:54:15;;;;;;;25.58;11.02;;;;;;;1.25;100.00;160899.63;5052808;28;20029;-60
2023/01/19 07:56:41;;;;;;;14.65;6.95;;;;;;;1.29;100.00;160909.00;5052031;28;20037;-60
2023/01/19 07:59:08;;;;;;;20.50;9.27;;;;;;;1.26;100.00;160902.31;5053422;28;20131;-60
2023/01/19 08:01:33;;;;;;;21.40;9.13;;;;;;;1.29;100.00;160907.69;5051174;28;20068;-60
2023/01/19 08:03:59;;;;;;;20.00;8.77;;;;;;;1.34;100.00;160921.09;5053266;28;20456;-60
2023/01/19 08:06:32;;;;;;;18.83;8.30;;;;;;;1.41;100.00;160941.25;5051439;28;20056;-59
2023/01/19 08:08:57;;;;;;;16.08;8.98;;;;;;;1.43;100.00;160945.25;5053139;28;20075;-60
2023/01/19 08:11:23;;;;;;;19.48;9.18;;;;;;;1.43;100.00;160945.25;5051242;28;20068;-60
2023/01/19 08:13:48;;;;;;;18.85;7.20;;;;;;;1.46;100.00;160953.25;5052997;28;20029;-60
2023/01/19 08:16:14;;;;;;;26.83;8.98;;;;;;;1.51;100.00;160966.72;5050991;28;20037;-59
2023/01/19 08:18:39;;;;;;;24.05;8.57;;;;;;;1.48;100.00;160958.66;5052920;28;20036;-60
2023/01/19 08:21:05;;;;;;;14.88;6.95;;;;;;;1.58;100.00;160984.13;5051520;28;20523;-59
2023/01/19 08:23:31;;;;;;;13.32;6.28;;;;;;;1.60;100.00;160988.19;5051292;28;20392;-60
2023/01/19 08:25:56;;;;;;;18.80;7.75;;;;;;;1.56;100.00;160980.13;5051409;28;20068;-60
2023/01/19 08:28:22;;;;;;;18.85;8.27;;;;;;;1.64;100.00;160998.91;5052508;28;20032;-60
2023/01/19 08:30:53;;;;;;;21.83;7.80;;;;;;;1.67;100.00;161006.97;5050771;28;20052;-60
2023/01/19 08:33:19;;;;;;;28.23;8.70;;;;;;;1.60;100.00;160989.50;5052340;28;20029;-60
2023/01/19 08:35:47;;;;;;;18.23;6.78;;;;;;;1.64;100.00;160998.91;5051542;28;20194;-60
2023/01/19 08:38:13;;;;;;;14.55;8.57;;;;;;;1.54;100.00;160974.75;5051825;28;20052;-60
2023/01/19 08:40:40;;;;;;;24.80;6.95;;;;;;;1.54;100.00;160974.75;5051102;28;20071;-59
2023/01/19 08:43:08;;;;;;;20.35;7.03;;;;;;;1.57;100.00;160982.81;5052624;28;20064;-60
2023/01/19 08:45:35;;;;;;;16.05;7.50;;;;;;;1.54;100.00;160974.75;5050475;28;20061;-59
2023/01/19 08:48:02;;;;;;;12.45;5.72;;;;;;;1.61;100.00;160990.81;5052428;28;20078;-59
2023/01/19 08:50:30;;;;;;;13.98;6.20;;;;;;;1.63;100.00;160996.22;5050445;28;20021;-59
2023/01/19 08:53:00;;;;;;;10.23;5.15;;;;;;;1.63;100.00;160997.56;5051666;28;20040;-60
2023/01/19 08:55:26;;;;;;;19.73;6.57;;;;;;;1.65;100.00;161001.59;5050326;28;20154;-61
2023/01/19 08:57:52;;;;;;;26.85;8.45;;;;;;;1.67;100.00;161006.97;5050732;28;20104;-62
2023/01/19 09:00:19;;;;;;;13.30;8.13;;;;;;;1.72;100.00;161020.38;5049296;28;20025;-62
2023/01/19 09:02:45;;;;;;;22.35;6.40;;;;;;;1.73;100.00;161023.06;5052140;28;20496;-63
2023/01/19 09:05:11;;;;;;;13.00;8.15;;;;;;;1.67;100.00;161006.97;5050491;28;20032;-63
2023/01/19 09:07:37;;;;;;;17.00;7.25;;;;;;;1.69;100.00;161012.31;5051050;28;20049;-63
2023/01/19 09:10:05;;;;;;;19.67;6.25;;;;;;;1.68;100.00;161009.59;5051805;28;20021;-62
2023/01/19 09:12:31;;;;;;;22.80;8.93;;;;;;;1.67;100.00;161006.97;5050220;28;20451;-62
2023/01/19 09:14:57;;;;;;;18.42;6.45;;;;;;;1.65;100.00;161001.59;5050893;28;20159;-62
2023/01/19 09:17:22;;;;;;;16.67;8.50;;;;;;;1.69;100.00;161012.31;5049560;28;20092;-63
2023/01/19 09:19:48;;;;;;;11.18;5.22;;;;;;;1.72;100.00;161020.38;5051420;28;20047;-62
2023/01/19 09:22:13;;;;;;;24.52;6.97;;;;;;;1.74;100.00;161027.06;5032654;28;20516;-63
2023/01/19 09:24:38;;;;;;;22.52;7.18;;;;;;;1.69;100.00;161012.31;5031922;28;20021;-63
2023/01/19 09:27:04;;;;;;;19.58;6.55;;;;;;;1.71;100.00;161017.69;5045509;28;20508;-62
2023/01/19 09:29:29;;;;;;;18.95;7.40;;;;;;;1.78;100.00;161036.47;5051051;28;20032;-62
2023/01/19 09:31:56;;;;;;;26.40;6.80;;;;;;;1.81;100.00;161044.53;5050045;28;20045;-62
2023/01/19 09:34:24;;;;;;;20.02;7.00;;;;;;;1.87;100.00;161060.63;5051567;28;20032;-62
2023/01/19 09:36:49;;;;;;;15.45;5.97;;;;;;;1.99;100.00;161090.13;5049885;28;20063;-62
2023/01/19 09:39:15;;;;;;;17.23;5.70;;;;;;;2.03;100.00;161102.22;5051135;28;20598;-61
2023/01/19 09:41:47;;;;;;;13.45;5.85;;;;;;;2.30;100.00;161170.66;5048602;28;20044;-62
2023/01/19 09:44:25;;;;;;;22.58;7.22;;;;;;;2.65;100.00;161261.94;5050657;28;20025;-62
2023/01/19 09:46:50;;;;;;;16.05;7.05;;;;;;;2.82;100.00;161307.59;5049913;28;20044;-62
2023/01/19 09:49:26;;;;;;;16.10;5.97;;;;;;;3.06;100.00;161369.41;5051065;28;20258;-62
2023/01/19 09:51:52;;;;;;;15.30;5.88;;;;;;;3.03;100.00;161361.31;5033731;28;20111;-62
2023/01/19 09:54:28;;;;;;;15.65;6.72;;;;;;;3.02;100.00;161358.63;5031218;28;20029;-62
2023/01/19 09:56:54;;;;;;;23.42;7.78;;;;;;;3.31;100.00;161433.88;5044933;28;20389;-62
2023/01/19 09:59:24;;;;;;;17.52;7.28;;;;;;;3.48;100.00;161479.53;5050665;28;20031;-62
2023/01/19 10:02:22;;;;;;;25.73;9.73;;;;;;;3.93;100.00;161595.06;5049567;28;20521;-62
2023/01/19 10:04:56;;;;;;;15.95;7.15;;;;;;;4.63;100.00;161776.53;5050620;28;20021;-62
2023/01/19 10:08:02;;;;;;;21.10;8.07;;;;;;;4.47;100.00;161734.88;5048745;28;20056;-62
2023/01/19 10:10:29;;;;;;;19.10;7.75;;;;;;;4.92;100.00;161854.53;5049006;28;20037;-62
2023/01/19 10:13:18;;;;;;;19.85;7.88;;;;;;;5.36;100.00;161968.88;5050905;28;20036;-62
2023/01/19 10:16:19;;;;;;;14.85;6.20;;;;;;;5.44;100.00;161987.69;5049779;28;20037;-63
2023/01/19 10:18:50;;;;;;;16.05;7.40;;;;;;;5.91;100.00;162111.50;5051139;28;20056;-61
2023/01/19 10:21:38;;;;;;;22.15;7.03;;;;;;;6.02;100.00;162141.13;5048739;28;20683;-61
2023/01/19 10:24:14;;;;;;;12.48;7.15;;;;;;;6.25;100.00;162199.03;5050869;28;20059;-62
2023/01/19 10:26:46;;;;;;;10.02;5.47;;;;;;;6.16;100.00;162177.50;5049486;28;20037;-63
2023/01/19 10:29:27;;;;;;;9.45;7.32;;;;;;;5.93;100.00;162116.84;5050318;28;20520;-62
2023/01/19 10:32:03;;;;;;;20.40;8.10;;;;;;;5.97;100.00;162127.63;5049217;28;20407;-62
2023/01/19 10:34:29;;;;;;;8.57;4.63;;;;;;;6.24;100.00;162197.66;5050380;28;20102;-62
2023/01/19 10:37:02;;;;;;;9.63;6.25;;;;;;;6.00;100.00;162135.72;5048888;28;20495;-62
2023/01/19 10:39:28;;;;;;;17.08;7.10;;;;;;;5.97;100.00;162127.63;5050535;28;20489;-62
2023/01/19 10:41:53;;;;;;;17.65;7.25;;;;;;;5.91;100.00;162111.50;5049287;28;20037;-62
2023/01/19 10:44:27;;;;;;;14.90;5.43;;;;;;;5.72;100.00;162061.72;5050113;28;20476;-62
2023/01/19 10:46:58;;;;;;;20.30;7.40;;;;;;;5.41;100.00;161980.97;5049124;28;20041;-62
2023/01/19 10:49:30;;;;;;;14.85;6.28;;;;;;;5.39;100.00;161975.59;5050403;28;20112;-62
2023/01/19 10:51:57;;;;;;;10.80;5.95;;;;;;;4.93;100.00;161857.22;5048640;28;20408;-62
2023/01/19 10:54:24;;;;;;;18.58;6.13;;;;;;;4.67;100.00;161788.63;5050157;28;20121;-62
2023/01/19 10:56:59;;;;;;;10.38;5.93;;;;;;;4.52;100.00;161748.31;5048983;28;20041;-62
2023/01/19 10:59:46;;;;;;;14.38;6.00;;;;;;;4.51;100.00;161746.97;5049887;28;20357;-62
2023/01/19 11:02:19;;;;;;;18.27;7.72;;;;;;;4.87;100.00;161839.78;5048861;28;20118;-61
2023/01/19 11:04:48;;;;;;;23.00;6.25;;;;;;;5.14;100.00;161909.69;5050590;28;20021;-62
2023/01/19 11:07:19;;;;;;;16.35;5.80;;;;;;;5.36;100.00;161968.88;5048080;28;20056;-61
2023/01/19 11:09:45;;;;;;;11.15;6.00;;;;;;;5.51;100.00;162006.53;5051338;28;20527;-62
2023/01/19 11:12:19;;;;;;;8.55;5.32;;;;;;;5.83;100.00;162091.28;5068578;28;20040;-62
2023/01/19 11:14:46;;;;;;;20.33;8.15;;;;;;;5.82;100.00;162087.25;5070060;28;20024;-62
2023/01/19 11:17:19;;;;;;;31.55;8.68;;;;;;;5.45;100.00;161990.41;5066940;28;20037;-61
2023/01/19 11:19:56;;;;;;;36.80;8.65;;;;;;;5.40;100.00;161978.28;5071450;28;20036;-61
2023/01/19 11:22:26;;;;;;;15.82;7.25;;;;;;;5.61;100.00;162033.47;5066644;28;20032;-61
2023/01/19 11:24:57;;;;;;;14.68;5.93;;;;;;;5.59;100.00;162028.06;5072330;28;20035;-63
2023/01/19 11:27:22;;;;;;;15.65;6.28;;;;;;;5.29;100.00;161950.03;5071810;28;20036;-62